sensor_id;sensor_type;location;lat;lon;timestamp;temperature;humidity
45104;DHT22;30865;51.288;4.572;2023-07-20T00:01:07;21.40;66.00
45104;DHT22;30865;51.288;4.572;2023-07-20T00:03:32;21.30;66.30
45104;DHT22;30865;51.288;4.572;2023-07-20T00:05:58;21.30;65.60
45104;DHT22;30865;51.288;4.572;2023-07-20T00:08:23;21.20;65.30
45104;DHT22;30865;51.288;4.572;2023-07-20T00:10:49;21.20;64.50
45104;DHT22;30865;51.288;4.572;2023-07-20T00:13:15;21.20;64.60
45104;DHT22;30865;51.288;4.572;2023-07-20T00:15:41;21.10;64.40
45104;DHT22;30865;51.288;4.572;2023-07-20T00:18:07;21.10;64.40
45104;DHT22;30865;51.288;4.572;2023-07-20T00:20:32;21.00;63.60
45104;DHT22;30865;51.288;4.572;2023-07-20T00:22:58;21.00;62.70
45104;DHT22;30865;51.288;4.572;2023-07-20T00:25:24;21.00;61.50
45104;DHT22;30865;51.288;4.572;2023-07-20T00:27:50;20.90;62.20
45104;DHT22;30865;51.288;4.572;2023-07-20T00:30:16;20.80;62.00
45104;DHT22;30865;51.288;4.572;2023-07-20T00:32:44;20.90;61.80
45104;DHT22;30865;51.288;4.572;2023-07-20T00:35:10;20.80;61.00
45104;DHT22;30865;51.288;4.572;2023-07-20T00:37:36;20.70;61.60
45104;DHT22;30865;51.288;4.572;2023-07-20T00:40:02;20.70;61.60
45104;DHT22;30865;51.288;4.572;2023-07-20T00:42:31;20.90;61.00
45104;DHT22;30865;51.288;4.572;2023-07-20T00:44:56;20.90;61.10
45104;DHT22;30865;51.288;4.572;2023-07-20T00:47:22;20.80;59.90
45104;DHT22;30865;51.288;4.572;2023-07-20T00:49:48;20.70;59.70
45104;DHT22;30865;51.288;4.572;2023-07-20T00:52:14;20.70;59.70
45104;DHT22;30865;51.288;4.572;2023-07-20T00:54:41;20.70;59.90
45104;DHT22;30865;51.288;4.572;2023-07-20T00:57:07;20.70;59.70
45104;DHT22;30865;51.288;4.572;2023-07-20T00:59:34;20.60;60.20
45104;DHT22;30865;51.288;4.572;2023-07-20T01:02:00;20.50;60.10
45104;DHT22;30865;51.288;4.572;2023-07-20T01:04:25;20.50;60.80
45104;DHT22;30865;51.288;4.572;2023-07-20T01:07:12;20.40;61.10
45104;DHT22;30865;51.288;4.572;2023-07-20T01:09:47;20.40;61.10
45104;DHT22;30865;51.288;4.572;2023-07-20T01:12:22;20.30;61.30
45104;DHT22;30865;51.288;4.572;2023-07-20T01:14:51;20.30;61.20
45104;DHT22;30865;51.288;4.572;2023-07-20T01:17:17;20.20;61.80
45104;DHT22;30865;51.288;4.572;2023-07-20T01:19:43;20.20;63.00
45104;DHT22;30865;51.288;4.572;2023-07-20T01:22:46;20.30;62.10
45104;DHT22;30865;51.288;4.572;2023-07-20T01:28:27;20.20;62.50
45104;DHT22;30865;51.288;4.572;2023-07-20T01:33:24;20.20;63.50
45104;DHT22;30865;51.288;4.572;2023-07-20T01:35:55;20.20;63.50
45104;DHT22;30865;51.288;4.572;2023-07-20T01:38:22;20.10;63.10
45104;DHT22;30865;51.288;4.572;2023-07-20T01:40:48;20.10;63.90
45104;DHT22;30865;51.288;4.572;2023-07-20T01:43:14;19.90;63.40
45104;DHT22;30865;51.288;4.572;2023-07-20T01:45:40;19.90;64.20
45104;DHT22;30865;51.288;4.572;2023-07-20T01:48:05;19.90;64.40
45104;DHT22;30865;51.288;4.572;2023-07-20T01:50:31;19.90;64.70
45104;DHT22;30865;51.288;4.572;2023-07-20T01:52:56;19.90;64.80
45104;DHT22;30865;51.288;4.572;2023-07-20T01:55:22;20.00;65.70
45104;DHT22;30865;51.288;4.572;2023-07-20T01:57:47;19.80;65.30
45104;DHT22;30865;51.288;4.572;2023-07-20T02:00:13;19.90;65.90
45104;DHT22;30865;51.288;4.572;2023-07-20T02:02:42;19.80;65.70
45104;DHT22;30865;51.288;4.572;2023-07-20T02:05:08;19.70;66.10
45104;DHT22;30865;51.288;4.572;2023-07-20T02:07:33;19.70;66.30
45104;DHT22;30865;51.288;4.572;2023-07-20T02:09:59;19.60;66.80
45104;DHT22;30865;51.288;4.572;2023-07-20T02:12:24;19.60;67.20
45104;DHT22;30865;51.288;4.572;2023-07-20T02:14:50;19.60;68.00
45104;DHT22;30865;51.288;4.572;2023-07-20T02:17:16;19.70;67.20
45104;DHT22;30865;51.288;4.572;2023-07-20T02:19:42;19.60;67.90
45104;DHT22;30865;51.288;4.572;2023-07-20T02:22:07;19.60;68.10
45104;DHT22;30865;51.288;4.572;2023-07-20T02:24:33;19.60;68.40
45104;DHT22;30865;51.288;4.572;2023-07-20T02:26:59;19.50;68.40
45104;DHT22;30865;51.288;4.572;2023-07-20T02:29:25;19.60;68.40
45104;DHT22;30865;51.288;4.572;2023-07-20T02:31:50;19.40;68.80
45104;DHT22;30865;51.288;4.572;2023-07-20T02:34:15;19.40;69.20
45104;DHT22;30865;51.288;4.572;2023-07-20T02:36:41;19.40;68.40
45104;DHT22;30865;51.288;4.572;2023-07-20T02:39:08;19.40;68.90
45104;DHT22;30865;51.288;4.572;2023-07-20T02:41:34;19.40;69.00
45104;DHT22;30865;51.288;4.572;2023-07-20T02:44:00;19.40;69.40
45104;DHT22;30865;51.288;4.572;2023-07-20T02:46:25;19.40;69.20
45104;DHT22;30865;51.288;4.572;2023-07-20T02:48:51;19.40;71.40
45104;DHT22;30865;51.288;4.572;2023-07-20T02:51:16;19.30;71.50
45104;DHT22;30865;51.288;4.572;2023-07-20T02:53:42;19.20;72.40
45104;DHT22;30865;51.288;4.572;2023-07-20T02:56:07;18.90;73.50
45104;DHT22;30865;51.288;4.572;2023-07-20T02:58:34;18.70;75.50
45104;DHT22;30865;51.288;4.572;2023-07-20T03:01:03;18.50;76.80
45104;DHT22;30865;51.288;4.572;2023-07-20T03:03:29;18.50;77.50
45104;DHT22;30865;51.288;4.572;2023-07-20T03:05:55;18.30;78.50
45104;DHT22;30865;51.288;4.572;2023-07-20T03:08:21;18.40;79.70
45104;DHT22;30865;51.288;4.572;2023-07-20T03:10:47;18.40;79.90
45104;DHT22;30865;51.288;4.572;2023-07-20T03:13:12;18.30;81.20
45104;DHT22;30865;51.288;4.572;2023-07-20T03:15:39;18.20;82.50
45104;DHT22;30865;51.288;4.572;2023-07-20T03:18:04;18.10;84.00
45104;DHT22;30865;51.288;4.572;2023-07-20T03:20:31;18.10;85.60
45104;DHT22;30865;51.288;4.572;2023-07-20T03:22:56;18.10;86.30
45104;DHT22;30865;51.288;4.572;2023-07-20T03:25:22;18.00;86.60
45104;DHT22;30865;51.288;4.572;2023-07-20T03:27:48;18.10;87.10
45104;DHT22;30865;51.288;4.572;2023-07-20T03:30:13;18.10;87.30
45104;DHT22;30865;51.288;4.572;2023-07-20T03:32:39;18.10;87.40
45104;DHT22;30865;51.288;4.572;2023-07-20T03:35:05;18.10;88.20
45104;DHT22;30865;51.288;4.572;2023-07-20T03:37:30;18.20;87.90
45104;DHT22;30865;51.288;4.572;2023-07-20T03:39:56;18.20;87.20
45104;DHT22;30865;51.288;4.572;2023-07-20T03:42:22;18.30;88.00
45104;DHT22;30865;51.288;4.572;2023-07-20T03:44:48;18.20;89.20
45104;DHT22;30865;51.288;4.572;2023-07-20T03:47:13;18.10;90.30
45104;DHT22;30865;51.288;4.572;2023-07-20T03:49:39;18.00;91.00
45104;DHT22;30865;51.288;4.572;2023-07-20T03:52:04;18.00;91.40
45104;DHT22;30865;51.288;4.572;2023-07-20T03:54:30;18.00;91.40
45104;DHT22;30865;51.288;4.572;2023-07-20T03:56:55;17.90;91.90
45104;DHT22;30865;51.288;4.572;2023-07-20T03:59:21;17.80;92.50
45104;DHT22;30865;51.288;4.572;2023-07-20T04:01:46;17.90;92.70
45104;DHT22;30865;51.288;4.572;2023-07-20T04:04:15;17.90;93.40
45104;DHT22;30865;51.288;4.572;2023-07-20T04:06:41;17.90;93.40
45104;DHT22;30865;51.288;4.572;2023-07-20T04:09:10;17.90;93.70
45104;DHT22;30865;51.288;4.572;2023-07-20T04:11:36;18.00;93.60
45104;DHT22;30865;51.288;4.572;2023-07-20T04:14:02;18.00;93.60
45104;DHT22;30865;51.288;4.572;2023-07-20T04:16:27;18.10;93.40
45104;DHT22;30865;51.288;4.572;2023-07-20T04:18:55;18.10;93.00
45104;DHT22;30865;51.288;4.572;2023-07-20T04:21:21;18.10;92.90
45104;DHT22;30865;51.288;4.572;2023-07-20T04:23:46;18.10;93.40
45104;DHT22;30865;51.288;4.572;2023-07-20T04:26:12;18.00;93.30
45104;DHT22;30865;51.288;4.572;2023-07-20T04:28:38;18.20;93.40
45104;DHT22;30865;51.288;4.572;2023-07-20T04:31:15;18.20;92.90
45104;DHT22;30865;51.288;4.572;2023-07-20T04:33:41;18.20;93.40
45104;DHT22;30865;51.288;4.572;2023-07-20T04:36:07;18.20;94.00
45104;DHT22;30865;51.288;4.572;2023-07-20T04:38:33;18.20;93.70
45104;DHT22;30865;51.288;4.572;2023-07-20T04:40:59;18.30;93.40
45104;DHT22;30865;51.288;4.572;2023-07-20T04:43:25;18.40;93.50
45104;DHT22;30865;51.288;4.572;2023-07-20T04:45:51;18.40;93.00
45104;DHT22;30865;51.288;4.572;2023-07-20T04:48:16;18.50;92.60
45104;DHT22;30865;51.288;4.572;2023-07-20T04:50:45;18.60;92.00
45104;DHT22;30865;51.288;4.572;2023-07-20T04:53:14;18.80;91.80
45104;DHT22;30865;51.288;4.572;2023-07-20T04:55:40;18.90;91.40
45104;DHT22;30865;51.288;4.572;2023-07-20T04:58:06;18.90;90.90
45104;DHT22;30865;51.288;4.572;2023-07-20T05:00:33;19.00;91.00
45104;DHT22;30865;51.288;4.572;2023-07-20T05:02:58;19.10;90.50
45104;DHT22;30865;51.288;4.572;2023-07-20T05:05:24;19.10;90.40
45104;DHT22;30865;51.288;4.572;2023-07-20T05:07:50;19.20;90.50
45104;DHT22;30865;51.288;4.572;2023-07-20T05:10:15;19.20;90.50
45104;DHT22;30865;51.288;4.572;2023-07-20T05:12:41;19.30;90.50
45104;DHT22;30865;51.288;4.572;2023-07-20T05:15:07;19.30;90.00
45104;DHT22;30865;51.288;4.572;2023-07-20T05:17:33;19.40;89.90
45104;DHT22;30865;51.288;4.572;2023-07-20T05:19:58;19.60;89.30
45104;DHT22;30865;51.288;4.572;2023-07-20T05:22:23;19.50;89.00
45104;DHT22;30865;51.288;4.572;2023-07-20T05:24:50;19.70;89.30
45104;DHT22;30865;51.288;4.572;2023-07-20T05:27:15;19.80;88.50
45104;DHT22;30865;51.288;4.572;2023-07-20T05:29:45;19.80;87.40
45104;DHT22;30865;51.288;4.572;2023-07-20T05:32:11;19.70;88.00
45104;DHT22;30865;51.288;4.572;2023-07-20T05:34:36;20.00;87.10
45104;DHT22;30865;51.288;4.572;2023-07-20T05:37:02;19.90;86.30
45104;DHT22;30865;51.288;4.572;2023-07-20T05:39:27;19.90;87.10
45104;DHT22;30865;51.288;4.572;2023-07-20T05:41:53;19.90;86.30
45104;DHT22;30865;51.288;4.572;2023-07-20T05:44:18;19.90;86.90
45104;DHT22;30865;51.288;4.572;2023-07-20T05:46:44;19.90;86.70
45104;DHT22;30865;51.288;4.572;2023-07-20T05:49:10;19.90;86.20
45104;DHT22;30865;51.288;4.572;2023-07-20T05:51:35;20.00;87.10
45104;DHT22;30865;51.288;4.572;2023-07-20T05:54:01;20.10;86.70
45104;DHT22;30865;51.288;4.572;2023-07-20T05:56:27;20.20;86.60
45104;DHT22;30865;51.288;4.572;2023-07-20T05:58:52;20.40;84.80
45104;DHT22;30865;51.288;4.572;2023-07-20T06:01:18;20.50;83.60
45104;DHT22;30865;51.288;4.572;2023-07-20T06:03:44;20.60;83.10
45104;DHT22;30865;51.288;4.572;2023-07-20T06:06:10;20.70;83.90
45104;DHT22;30865;51.288;4.572;2023-07-20T06:08:37;20.80;83.60
45104;DHT22;30865;51.288;4.572;2023-07-20T06:11:03;20.70;82.90
45104;DHT22;30865;51.288;4.572;2023-07-20T06:13:29;20.70;82.40
45104;DHT22;30865;51.288;4.572;2023-07-20T06:15:54;20.90;81.10
45104;DHT22;30865;51.288;4.572;2023-07-20T06:18:22;21.00;80.30
45104;DHT22;30865;51.288;4.572;2023-07-20T06:20:51;20.80;81.80
45104;DHT22;30865;51.288;4.572;2023-07-20T06:23:19;20.70;82.70
45104;DHT22;30865;51.288;4.572;2023-07-20T06:25:45;20.80;84.00
45104;DHT22;30865;51.288;4.572;2023-07-20T06:28:10;20.80;82.40
45104;DHT22;30865;51.288;4.572;2023-07-20T06:30:36;20.90;82.40
45104;DHT22;30865;51.288;4.572;2023-07-20T06:33:01;21.00;82.20
45104;DHT22;30865;51.288;4.572;2023-07-20T06:35:27;21.10;81.10
45104;DHT22;30865;51.288;4.572;2023-07-20T06:37:52;21.20;80.90
45104;DHT22;30865;51.288;4.572;2023-07-20T06:40:18;21.20;80.90
45104;DHT22;30865;51.288;4.572;2023-07-20T06:42:44;21.50;79.50
45104;DHT22;30865;51.288;4.572;2023-07-20T06:45:09;21.50;79.30
45104;DHT22;30865;51.288;4.572;2023-07-20T06:47:38;21.70;78.80
45104;DHT22;30865;51.288;4.572;2023-07-20T06:50:04;22.10;78.00
45104;DHT22;30865;51.288;4.572;2023-07-20T06:52:29;22.30;76.70
45104;DHT22;30865;51.288;4.572;2023-07-20T06:54:55;21.90;76.70
45104;DHT22;30865;51.288;4.572;2023-07-20T06:57:20;22.40;76.10
45104;DHT22;30865;51.288;4.572;2023-07-20T06:59:46;22.70;74.50
45104;DHT22;30865;51.288;4.572;2023-07-20T07:02:11;23.00;73.50
45104;DHT22;30865;51.288;4.572;2023-07-20T07:04:37;23.30;72.90
45104;DHT22;30865;51.288;4.572;2023-07-20T07:07:02;23.40;72.80
45104;DHT22;30865;51.288;4.572;2023-07-20T07:09:29;23.90;69.50
45104;DHT22;30865;51.288;4.572;2023-07-20T07:11:54;23.90;68.30
45104;DHT22;30865;51.288;4.572;2023-07-20T07:14:20;23.90;68.40
45104;DHT22;30865;51.288;4.572;2023-07-20T07:16:46;23.40;69.30
45104;DHT22;30865;51.288;4.572;2023-07-20T07:19:11;23.20;69.40
45104;DHT22;30865;51.288;4.572;2023-07-20T07:21:37;22.60;70.30
45104;DHT22;30865;51.288;4.572;2023-07-20T07:24:03;22.70;71.40
45104;DHT22;30865;51.288;4.572;2023-07-20T07:26:29;22.90;70.80
45104;DHT22;30865;51.288;4.572;2023-07-20T07:28:54;22.70;71.30
45104;DHT22;30865;51.288;4.572;2023-07-20T07:31:20;22.90;71.70
45104;DHT22;30865;51.288;4.572;2023-07-20T07:33:46;23.40;69.70
45104;DHT22;30865;51.288;4.572;2023-07-20T07:36:11;22.30;72.10
45104;DHT22;30865;51.288;4.572;2023-07-20T07:38:37;22.30;73.90
45104;DHT22;30865;51.288;4.572;2023-07-20T07:41:03;22.10;73.60
45104;DHT22;30865;51.288;4.572;2023-07-20T07:43:29;22.00;74.20
45104;DHT22;30865;51.288;4.572;2023-07-20T07:45:54;22.30;73.80
45104;DHT22;30865;51.288;4.572;2023-07-20T07:48:20;22.40;72.50
45104;DHT22;30865;51.288;4.572;2023-07-20T07:50:47;23.00;71.10
45104;DHT22;30865;51.288;4.572;2023-07-20T07:53:12;23.30;69.40
45104;DHT22;30865;51.288;4.572;2023-07-20T07:55:38;23.80;66.60
45104;DHT22;30865;51.288;4.572;2023-07-20T07:58:04;23.10;67.10
45104;DHT22;30865;51.288;4.572;2023-07-20T08:00:29;23.00;69.00
45104;DHT22;30865;51.288;4.572;2023-07-20T08:02:55;23.60;67.10
45104;DHT22;30865;51.288;4.572;2023-07-20T08:05:20;23.40;67.30
45104;DHT22;30865;51.288;4.572;2023-07-20T08:07:46;23.20;66.50
45104;DHT22;30865;51.288;4.572;2023-07-20T08:10:12;23.20;67.20
45104;DHT22;30865;51.288;4.572;2023-07-20T08:12:37;23.60;65.10
45104;DHT22;30865;51.288;4.572;2023-07-20T08:15:03;23.90;64.70
45104;DHT22;30865;51.288;4.572;2023-07-20T08:17:29;24.50;61.40
45104;DHT22;30865;51.288;4.572;2023-07-20T08:19:55;24.50;60.50
45104;DHT22;30865;51.288;4.572;2023-07-20T08:22:20;24.00;61.40
45104;DHT22;30865;51.288;4.572;2023-07-20T08:24:46;23.70;62.80
45104;DHT22;30865;51.288;4.572;2023-07-20T08:27:12;23.80;62.20
45104;DHT22;30865;51.288;4.572;2023-07-20T08:29:37;23.00;63.30
45104;DHT22;30865;51.288;4.572;2023-07-20T08:32:04;23.20;63.30
45104;DHT22;30865;51.288;4.572;2023-07-20T08:34:30;23.40;62.30
45104;DHT22;30865;51.288;4.572;2023-07-20T08:36:56;23.60;61.10
45104;DHT22;30865;51.288;4.572;2023-07-20T08:39:22;23.70;60.60
45104;DHT22;30865;51.288;4.572;2023-07-20T08:41:48;23.90;60.40
45104;DHT22;30865;51.288;4.572;2023-07-20T08:44:14;24.40;58.80
45104;DHT22;30865;51.288;4.572;2023-07-20T08:46:41;23.70;60.20
45104;DHT22;30865;51.288;4.572;2023-07-20T08:49:07;23.60;61.10
45104;DHT22;30865;51.288;4.572;2023-07-20T08:51:33;23.60;61.10
45104;DHT22;30865;51.288;4.572;2023-07-20T08:54:00;24.00;61.00
45104;DHT22;30865;51.288;4.572;2023-07-20T08:56:26;24.20;59.40
45104;DHT22;30865;51.288;4.572;2023-07-20T08:58:53;24.60;58.80
45104;DHT22;30865;51.288;4.572;2023-07-20T09:01:19;24.60;57.80
45104;DHT22;30865;51.288;4.572;2023-07-20T09:03:46;24.40;58.30
45104;DHT22;30865;51.288;4.572;2023-07-20T09:06:12;24.20;57.90
45104;DHT22;30865;51.288;4.572;2023-07-20T09:08:38;23.70;59.00
45104;DHT22;30865;51.288;4.572;2023-07-20T09:11:04;23.50;59.60
45104;DHT22;30865;51.288;4.572;2023-07-20T09:13:29;23.40;59.50
45104;DHT22;30865;51.288;4.572;2023-07-20T09:15:55;23.60;59.30
45104;DHT22;30865;51.288;4.572;2023-07-20T09:18:28;24.10;57.50
45104;DHT22;30865;51.288;4.572;2023-07-20T09:21:14;24.20;57.30
45104;DHT22;30865;51.288;4.572;2023-07-20T09:23:42;24.60;56.50
45104;DHT22;30865;51.288;4.572;2023-07-20T09:26:11;24.80;55.80
45104;DHT22;30865;51.288;4.572;2023-07-20T09:28:57;25.10;55.20
45104;DHT22;30865;51.288;4.572;2023-07-20T09:31:23;24.80;53.60
45104;DHT22;30865;51.288;4.572;2023-07-20T09:33:50;25.80;53.90
45104;DHT22;30865;51.288;4.572;2023-07-20T09:36:17;25.60;53.30
45104;DHT22;30865;51.288;4.572;2023-07-20T09:38:43;25.30;53.30
45104;DHT22;30865;51.288;4.572;2023-07-20T09:41:13;25.00;54.00
45104;DHT22;30865;51.288;4.572;2023-07-20T09:43:39;24.60;55.10
45104;DHT22;30865;51.288;4.572;2023-07-20T09:46:05;24.70;54.80
45104;DHT22;30865;51.288;4.572;2023-07-20T09:48:30;24.50;55.00
45104;DHT22;30865;51.288;4.572;2023-07-20T09:50:56;24.50;55.50
45104;DHT22;30865;51.288;4.572;2023-07-20T09:53:24;24.00;55.90
45104;DHT22;30865;51.288;4.572;2023-07-20T09:55:50;23.90;55.80
45104;DHT22;30865;51.288;4.572;2023-07-20T09:58:17;24.10;56.00
45104;DHT22;30865;51.288;4.572;2023-07-20T10:00:44;23.90;55.30
45104;DHT22;30865;51.288;4.572;2023-07-20T10:03:16;23.60;55.00
45104;DHT22;30865;51.288;4.572;2023-07-20T10:05:47;24.10;54.30
45104;DHT22;30865;51.288;4.572;2023-07-20T10:08:15;24.80;52.20
45104;DHT22;30865;51.288;4.572;2023-07-20T10:10:42;25.30;51.40
45104;DHT22;30865;51.288;4.572;2023-07-20T10:13:15;25.60;50.30
45104;DHT22;30865;51.288;4.572;2023-07-20T10:15:54;26.10;49.20
45104;DHT22;30865;51.288;4.572;2023-07-20T10:20:54;26.50;47.60
45104;DHT22;30865;51.288;4.572;2023-07-20T10:23:21;26.20;48.60
45104;DHT22;30865;51.288;4.572;2023-07-20T10:25:47;25.60;49.90
45104;DHT22;30865;51.288;4.572;2023-07-20T10:28:13;25.70;49.30
45104;DHT22;30865;51.288;4.572;2023-07-20T10:30:40;24.90;49.80
45104;DHT22;30865;51.288;4.572;2023-07-20T10:33:06;25.00;51.20
45104;DHT22;30865;51.288;4.572;2023-07-20T10:35:54;24.80;50.30
45104;DHT22;30865;51.288;4.572;2023-07-20T10:41:03;25.70;48.10
45104;DHT22;30865;51.288;4.572;2023-07-20T10:43:30;25.90;46.90
45104;DHT22;30865;51.288;4.572;2023-07-20T10:45:57;25.60;47.50
45104;DHT22;30865;51.288;4.572;2023-07-20T10:48:24;25.50;47.10
45104;DHT22;30865;51.288;4.572;2023-07-20T10:51:19;25.80;46.30
45104;DHT22;30865;51.288;4.572;2023-07-20T10:53:45;26.00;45.50
45104;DHT22;30865;51.288;4.572;2023-07-20T10:56:15;26.20;45.30
45104;DHT22;30865;51.288;4.572;2023-07-20T10:58:41;25.70;45.70
45104;DHT22;30865;51.288;4.572;2023-07-20T11:01:08;25.70;46.30
45104;DHT22;30865;51.288;4.572;2023-07-20T11:03:39;25.30;47.00
45104;DHT22;30865;51.288;4.572;2023-07-20T11:08:56;26.00;46.00
45104;DHT22;30865;51.288;4.572;2023-07-20T11:11:30;26.50;44.70
45104;DHT22;30865;51.288;4.572;2023-07-20T11:13:59;26.90;43.40
45104;DHT22;30865;51.288;4.572;2023-07-20T11:16:42;26.50;43.80
45104;DHT22;30865;51.288;4.572;2023-07-20T11:19:24;26.50;43.00
45104;DHT22;30865;51.288;4.572;2023-07-20T11:21:52;26.20;43.10
45104;DHT22;30865;51.288;4.572;2023-07-20T11:24:17;26.40;43.80
45104;DHT22;30865;51.288;4.572;2023-07-20T11:26:47;26.70;42.30
45104;DHT22;30865;51.288;4.572;2023-07-20T11:29:13;27.20;41.20
45104;DHT22;30865;51.288;4.572;2023-07-20T11:31:43;27.50;40.90
45104;DHT22;30865;51.288;4.572;2023-07-20T11:34:17;26.60;41.60
45104;DHT22;30865;51.288;4.572;2023-07-20T11:36:45;26.60;41.80
45104;DHT22;30865;51.288;4.572;2023-07-20T11:39:18;26.60;41.80
45104;DHT22;30865;51.288;4.572;2023-07-20T11:41:52;27.10;40.80
45104;DHT22;30865;51.288;4.572;2023-07-20T11:44:18;27.30;40.90
45104;DHT22;30865;51.288;4.572;2023-07-20T11:46:45;27.10;40.40
45104;DHT22;30865;51.288;4.572;2023-07-20T11:49:11;27.30;40.00
45104;DHT22;30865;51.288;4.572;2023-07-20T11:51:39;27.40;39.60
45104;DHT22;30865;51.288;4.572;2023-07-20T11:54:06;27.80;39.30
45104;DHT22;30865;51.288;4.572;2023-07-20T11:56:32;27.60;39.70
45104;DHT22;30865;51.288;4.572;2023-07-20T11:58:58;27.70;39.10
45104;DHT22;30865;51.288;4.572;2023-07-20T12:01:27;27.80;38.20
45104;DHT22;30865;51.288;4.572;2023-07-20T12:04:01;28.10;38.30
45104;DHT22;30865;51.288;4.572;2023-07-20T12:06:28;27.30;39.20
45104;DHT22;30865;51.288;4.572;2023-07-20T12:08:55;26.50;40.40
45104;DHT22;30865;51.288;4.572;2023-07-20T12:11:45;26.90;39.90
45104;DHT22;30865;51.288;4.572;2023-07-20T12:14:10;27.70;38.90
45104;DHT22;30865;51.288;4.572;2023-07-20T12:16:37;27.50;38.70
45104;DHT22;30865;51.288;4.572;2023-07-20T12:19:08;27.40;38.30
45104;DHT22;30865;51.288;4.572;2023-07-20T12:21:34;27.60;37.70
45104;DHT22;30865;51.288;4.572;2023-07-20T12:24:02;28.60;36.50
45104;DHT22;30865;51.288;4.572;2023-07-20T12:26:30;28.30;36.40
45104;DHT22;30865;51.288;4.572;2023-07-20T12:28:55;28.00;37.40
45104;DHT22;30865;51.288;4.572;2023-07-20T12:31:22;28.00;36.70
45104;DHT22;30865;51.288;4.572;2023-07-20T12:33:50;28.20;36.80
45104;DHT22;30865;51.288;4.572;2023-07-20T12:36:17;28.70;35.90
45104;DHT22;30865;51.288;4.572;2023-07-20T12:38:42;28.60;36.30
45104;DHT22;30865;51.288;4.572;2023-07-20T12:41:10;28.40;36.10
45104;DHT22;30865;51.288;4.572;2023-07-20T12:43:38;28.40;36.50
45104;DHT22;30865;51.288;4.572;2023-07-20T12:46:03;28.40;35.70
45104;DHT22;30865;51.288;4.572;2023-07-20T12:48:29;28.40;36.80
45104;DHT22;30865;51.288;4.572;2023-07-20T12:50:54;28.40;35.40
45104;DHT22;30865;51.288;4.572;2023-07-20T12:53:20;28.30;35.30
45104;DHT22;30865;51.288;4.572;2023-07-20T12:55:45;28.00;35.20
45104;DHT22;30865;51.288;4.572;2023-07-20T12:58:11;28.50;35.70
45104;DHT22;30865;51.288;4.572;2023-07-20T13:00:37;28.60;36.00
45104;DHT22;30865;51.288;4.572;2023-07-20T13:03:03;28.40;35.80
45104;DHT22;30865;51.288;4.572;2023-07-20T13:05:33;28.30;36.20
45104;DHT22;30865;51.288;4.572;2023-07-20T13:07:59;28.70;36.30
45104;DHT22;30865;51.288;4.572;2023-07-20T13:10:24;28.90;35.70
45104;DHT22;30865;51.288;4.572;2023-07-20T13:12:50;28.80;35.70
45104;DHT22;30865;51.288;4.572;2023-07-20T13:15:17;29.10;35.70
45104;DHT22;30865;51.288;4.572;2023-07-20T13:17:42;28.20;35.50
45104;DHT22;30865;51.288;4.572;2023-07-20T13:20:09;28.60;36.00
45104;DHT22;30865;51.288;4.572;2023-07-20T13:22:35;28.50;35.40
45104;DHT22;30865;51.288;4.572;2023-07-20T13:25:01;28.30;34.90
45104;DHT22;30865;51.288;4.572;2023-07-20T13:27:27;28.00;36.00
45104;DHT22;30865;51.288;4.572;2023-07-20T13:29:52;28.40;35.30
45104;DHT22;30865;51.288;4.572;2023-07-20T13:32:18;29.30;34.10
45104;DHT22;30865;51.288;4.572;2023-07-20T13:34:44;29.80;33.60
45104;DHT22;30865;51.288;4.572;2023-07-20T13:37:10;29.50;32.70
45104;DHT22;30865;51.288;4.572;2023-07-20T13:39:36;29.30;33.50
45104;DHT22;30865;51.288;4.572;2023-07-20T13:42:02;28.80;34.00
45104;DHT22;30865;51.288;4.572;2023-07-20T13:44:33;28.30;35.00
45104;DHT22;30865;51.288;4.572;2023-07-20T13:47:03;28.20;34.20
45104;DHT22;30865;51.288;4.572;2023-07-20T13:49:30;28.80;33.60
45104;DHT22;30865;51.288;4.572;2023-07-20T13:51:56;28.80;33.20
45104;DHT22;30865;51.288;4.572;2023-07-20T13:54:23;28.50;34.20
45104;DHT22;30865;51.288;4.572;2023-07-20T13:56:48;28.50;34.10
45104;DHT22;30865;51.288;4.572;2023-07-20T13:59:14;29.00;33.00
45104;DHT22;30865;51.288;4.572;2023-07-20T14:01:39;29.40;32.80
45104;DHT22;30865;51.288;4.572;2023-07-20T14:04:05;29.00;32.60
45104;DHT22;30865;51.288;4.572;2023-07-20T14:06:32;28.90;32.70
45104;DHT22;30865;51.288;4.572;2023-07-20T14:08:58;29.10;32.70
45104;DHT22;30865;51.288;4.572;2023-07-20T14:11:24;29.10;32.80
45104;DHT22;30865;51.288;4.572;2023-07-20T14:13:50;29.70;32.30
45104;DHT22;30865;51.288;4.572;2023-07-20T14:16:17;29.80;31.60
45104;DHT22;30865;51.288;4.572;2023-07-20T14:18:42;29.50;31.80
45104;DHT22;30865;51.288;4.572;2023-07-20T14:21:08;29.50;32.30
45104;DHT22;30865;51.288;4.572;2023-07-20T14:23:33;28.80;32.70
45104;DHT22;30865;51.288;4.572;2023-07-20T14:25:59;29.40;33.00
45104;DHT22;30865;51.288;4.572;2023-07-20T14:28:25;29.60;32.90
45104;DHT22;30865;51.288;4.572;2023-07-20T14:30:50;29.20;32.50
45104;DHT22;30865;51.288;4.572;2023-07-20T14:33:16;30.00;32.40
45104;DHT22;30865;51.288;4.572;2023-07-20T14:35:41;30.20;31.10
45104;DHT22;30865;51.288;4.572;2023-07-20T14:38:07;30.00;31.10
45104;DHT22;30865;51.288;4.572;2023-07-20T14:40:32;29.80;31.50
45104;DHT22;30865;51.288;4.572;2023-07-20T14:42:58;29.20;32.20
45104;DHT22;30865;51.288;4.572;2023-07-20T14:45:26;29.70;32.10
45104;DHT22;30865;51.288;4.572;2023-07-20T14:47:52;30.20;30.50
45104;DHT22;30865;51.288;4.572;2023-07-20T14:50:22;31.10;29.90
45104;DHT22;30865;51.288;4.572;2023-07-20T14:52:48;31.60;29.10
45104;DHT22;30865;51.288;4.572;2023-07-20T14:55:14;32.10;28.40
45104;DHT22;30865;51.288;4.572;2023-07-20T14:57:40;31.80;28.60
45104;DHT22;30865;51.288;4.572;2023-07-20T15:00:06;32.00;28.80
45104;DHT22;30865;51.288;4.572;2023-07-20T15:02:38;32.60;28.40
45104;DHT22;30865;51.288;4.572;2023-07-20T15:05:07;32.90;27.80
45104;DHT22;30865;51.288;4.572;2023-07-20T15:07:32;31.80;28.30
45104;DHT22;30865;51.288;4.572;2023-07-20T15:09:58;32.00;28.30
45104;DHT22;30865;51.288;4.572;2023-07-20T15:12:24;31.90;28.00
45104;DHT22;30865;51.288;4.572;2023-07-20T15:15:07;31.80;28.00
45104;DHT22;30865;51.288;4.572;2023-07-20T15:17:36;32.20;27.50
45104;DHT22;30865;51.288;4.572;2023-07-20T15:20:03;31.80;27.90
45104;DHT22;30865;51.288;4.572;2023-07-20T15:22:35;31.90;27.50
45104;DHT22;30865;51.288;4.572;2023-07-20T15:25:08;30.80;29.10
45104;DHT22;30865;51.288;4.572;2023-07-20T15:27:36;30.80;29.20
45104;DHT22;30865;51.288;4.572;2023-07-20T15:30:02;30.80;29.40
45104;DHT22;30865;51.288;4.572;2023-07-20T15:32:27;31.50;28.30
45104;DHT22;30865;51.288;4.572;2023-07-20T15:34:53;30.80;28.20
45104;DHT22;30865;51.288;4.572;2023-07-20T15:37:18;31.20;28.60
45104;DHT22;30865;51.288;4.572;2023-07-20T15:39:47;31.50;28.20
45104;DHT22;30865;51.288;4.572;2023-07-20T15:42:12;31.50;28.10